sensor_id;sensor_type;location;lat;lon;timestamp;temperature;humidity
16728;DHT22;8482;54.396;18.590;2023-07-13T00:00:04;18.20;99.90
16728;DHT22;8482;54.396;18.590;2023-07-13T00:02:35;18.20;99.90
16728;DHT22;8482;54.396;18.590;2023-07-13T00:05:01;18.20;99.90
16728;DHT22;8482;54.396;18.590;2023-07-13T00:07:27;18.20;99.90
16728;DHT22;8482;54.396;18.590;2023-07-13T00:09:52;18.10;99.90
16728;DHT22;8482;54.396;18.590;2023-07-13T00:12:34;18.10;99.90
16728;DHT22;8482;54.396;18.590;2023-07-13T00:15:06;18.10;99.90
16728;DHT22;8482;54.396;18.590;2023-07-13T00:17:37;18.10;99.90
16728;DHT22;8482;54.396;18.590;2023-07-13T00:20:05;18.00;99.90
16728;DHT22;8482;54.396;18.590;2023-07-13T00:22:32;18.00;99.90
16728;DHT22;8482;54.396;18.590;2023-07-13T00:24:58;18.00;99.90
16728;DHT22;8482;54.396;18.590;2023-07-13T00:27:24;18.00;99.90
16728;DHT22;8482;54.396;18.590;2023-07-13T00:29:55;18.00;99.90
16728;DHT22;8482;54.396;18.590;2023-07-13T00:32:21;18.00;99.90
16728;DHT22;8482;54.396;18.590;2023-07-13T00:34:47;17.90;99.90
16728;DHT22;8482;54.396;18.590;2023-07-13T00:37:12;17.90;99.90
16728;DHT22;8482;54.396;18.590;2023-07-13T00:39:38;17.90;99.90
16728;DHT22;8482;54.396;18.590;2023-07-13T00:42:04;17.90;99.90
16728;DHT22;8482;54.396;18.590;2023-07-13T00:44:31;17.90;99.90
16728;DHT22;8482;54.396;18.590;2023-07-13T00:46:57;17.90;99.90
16728;DHT22;8482;54.396;18.590;2023-07-13T00:49:26;17.90;99.90
16728;DHT22;8482;54.396;18.590;2023-07-13T00:51:57;17.80;99.90
16728;DHT22;8482;54.396;18.590;2023-07-13T00:54:34;17.80;99.90
16728;DHT22;8482;54.396;18.590;2023-07-13T00:57:07;17.80;99.90
16728;DHT22;8482;54.396;18.590;2023-07-13T00:59:40;17.80;99.90
16728;DHT22;8482;54.396;18.590;2023-07-13T01:02:08;17.70;99.90
16728;DHT22;8482;54.396;18.590;2023-07-13T01:04:34;17.70;99.90
16728;DHT22;8482;54.396;18.590;2023-07-13T01:07:00;17.60;99.90
16728;DHT22;8482;54.396;18.590;2023-07-13T01:09:26;17.60;99.90
16728;DHT22;8482;54.396;18.590;2023-07-13T01:11:52;17.60;99.90
16728;DHT22;8482;54.396;18.590;2023-07-13T01:14:19;17.60;99.90
16728;DHT22;8482;54.396;18.590;2023-07-13T01:16:46;17.50;99.90
16728;DHT22;8482;54.396;18.590;2023-07-13T01:19:27;17.50;99.90
16728;DHT22;8482;54.396;18.590;2023-07-13T01:22:14;17.50;99.90
16728;DHT22;8482;54.396;18.590;2023-07-13T01:24:44;17.40;99.90
16728;DHT22;8482;54.396;18.590;2023-07-13T01:27:14;17.40;99.90
16728;DHT22;8482;54.396;18.590;2023-07-13T01:29:43;17.40;99.90
16728;DHT22;8482;54.396;18.590;2023-07-13T01:32:15;17.40;99.90
16728;DHT22;8482;54.396;18.590;2023-07-13T01:34:48;17.40;99.90
16728;DHT22;8482;54.396;18.590;2023-07-13T01:37:14;17.40;99.90
16728;DHT22;8482;54.396;18.590;2023-07-13T01:39:40;17.40;99.90
16728;DHT22;8482;54.396;18.590;2023-07-13T01:42:06;17.40;99.90
16728;DHT22;8482;54.396;18.590;2023-07-13T01:44:32;17.40;99.90
16728;DHT22;8482;54.396;18.590;2023-07-13T01:46:58;17.40;99.90
16728;DHT22;8482;54.396;18.590;2023-07-13T01:49:24;17.40;99.90
16728;DHT22;8482;54.396;18.590;2023-07-13T01:51:50;17.40;99.90
16728;DHT22;8482;54.396;18.590;2023-07-13T01:54:15;17.30;99.90
16728;DHT22;8482;54.396;18.590;2023-07-13T01:56:41;17.30;99.90
16728;DHT22;8482;54.396;18.590;2023-07-13T01:59:08;17.30;99.90
16728;DHT22;8482;54.396;18.590;2023-07-13T02:01:34;17.40;99.90
16728;DHT22;8482;54.396;18.590;2023-07-13T02:04:00;17.40;99.90
16728;DHT22;8482;54.396;18.590;2023-07-13T02:06:26;17.40;99.90
16728;DHT22;8482;54.396;18.590;2023-07-13T02:08:52;17.40;99.90
16728;DHT22;8482;54.396;18.590;2023-07-13T02:11:19;17.40;99.90
16728;DHT22;8482;54.396;18.590;2023-07-13T02:13:44;17.40;99.90
16728;DHT22;8482;54.396;18.590;2023-07-13T02:16:10;17.40;99.90
16728;DHT22;8482;54.396;18.590;2023-07-13T02:18:36;17.40;99.90
16728;DHT22;8482;54.396;18.590;2023-07-13T02:21:03;17.40;99.90
16728;DHT22;8482;54.396;18.590;2023-07-13T02:23:29;17.50;99.90
16728;DHT22;8482;54.396;18.590;2023-07-13T02:25:59;17.40;99.90
16728;DHT22;8482;54.396;18.590;2023-07-13T02:28:25;17.50;99.90
16728;DHT22;8482;54.396;18.590;2023-07-13T02:30:51;17.50;99.90
16728;DHT22;8482;54.396;18.590;2023-07-13T02:33:17;17.50;99.90
16728;DHT22;8482;54.396;18.590;2023-07-13T02:35:43;17.50;99.90
16728;DHT22;8482;54.396;18.590;2023-07-13T02:38:09;17.50;99.90
16728;DHT22;8482;54.396;18.590;2023-07-13T02:40:35;17.50;99.90
16728;DHT22;8482;54.396;18.590;2023-07-13T02:43:01;17.50;99.90
16728;DHT22;8482;54.396;18.590;2023-07-13T02:45:28;17.50;99.90
16728;DHT22;8482;54.396;18.590;2023-07-13T02:47:54;17.50;99.90
16728;DHT22;8482;54.396;18.590;2023-07-13T02:50:20;17.50;99.90
16728;DHT22;8482;54.396;18.590;2023-07-13T02:52:46;17.50;99.90
16728;DHT22;8482;54.396;18.590;2023-07-13T02:55:12;17.50;99.90
16728;DHT22;8482;54.396;18.590;2023-07-13T02:57:38;17.50;99.90
16728;DHT22;8482;54.396;18.590;2023-07-13T03:00:05;17.50;99.90
16728;DHT22;8482;54.396;18.590;2023-07-13T03:02:32;17.50;99.90
16728;DHT22;8482;54.396;18.590;2023-07-13T03:04:59;17.50;99.90
16728;DHT22;8482;54.396;18.590;2023-07-13T03:07:24;17.50;99.90
16728;DHT22;8482;54.396;18.590;2023-07-13T03:09:55;17.50;99.90
16728;DHT22;8482;54.396;18.590;2023-07-13T03:12:22;17.50;99.90
16728;DHT22;8482;54.396;18.590;2023-07-13T03:14:48;17.50;99.90
16728;DHT22;8482;54.396;18.590;2023-07-13T03:17:14;17.40;99.90
16728;DHT22;8482;54.396;18.590;2023-07-13T03:19:40;17.50;99.90
16728;DHT22;8482;54.396;18.590;2023-07-13T03:22:06;17.40;99.90
16728;DHT22;8482;54.396;18.590;2023-07-13T03:24:35;17.50;99.90
16728;DHT22;8482;54.396;18.590;2023-07-13T03:27:04;17.50;99.90
16728;DHT22;8482;54.396;18.590;2023-07-13T03:29:30;17.50;99.90
16728;DHT22;8482;54.396;18.590;2023-07-13T03:31:56;17.50;99.90
16728;DHT22;8482;54.396;18.590;2023-07-13T03:34:22;17.40;99.90
16728;DHT22;8482;54.396;18.590;2023-07-13T03:36:48;17.40;99.90
16728;DHT22;8482;54.396;18.590;2023-07-13T03:39:14;17.40;99.90
16728;DHT22;8482;54.396;18.590;2023-07-13T03:41:40;17.40;99.90
16728;DHT22;8482;54.396;18.590;2023-07-13T03:44:06;17.40;99.90
16728;DHT22;8482;54.396;18.590;2023-07-13T03:46:32;17.40;99.90
16728;DHT22;8482;54.396;18.590;2023-07-13T03:48:59;17.40;99.90
16728;DHT22;8482;54.396;18.590;2023-07-13T03:51:25;17.40;99.90
16728;DHT22;8482;54.396;18.590;2023-07-13T03:53:51;17.40;99.90
16728;DHT22;8482;54.396;18.590;2023-07-13T03:56:18;17.40;99.90
16728;DHT22;8482;54.396;18.590;2023-07-13T03:58:46;17.40;99.90
16728;DHT22;8482;54.396;18.590;2023-07-13T04:01:15;17.40;99.90
16728;DHT22;8482;54.396;18.590;2023-07-13T04:03:42;17.40;99.90
16728;DHT22;8482;54.396;18.590;2023-07-13T04:06:15;17.40;99.90
16728;DHT22;8482;54.396;18.590;2023-07-13T04:08:48;17.50;99.90
16728;DHT22;8482;54.396;18.590;2023-07-13T04:11:16;17.50;99.90
16728;DHT22;8482;54.396;18.590;2023-07-13T04:13:42;17.50;99.90
16728;DHT22;8482;54.396;18.590;2023-07-13T04:16:08;17.50;99.90
16728;DHT22;8482;54.396;18.590;2023-07-13T04:18:34;17.60;99.90
16728;DHT22;8482;54.396;18.590;2023-07-13T04:21:00;17.60;99.90
16728;DHT22;8482;54.396;18.590;2023-07-13T04:23:26;17.70;99.90
16728;DHT22;8482;54.396;18.590;2023-07-13T04:25:53;17.70;99.90
16728;DHT22;8482;54.396;18.590;2023-07-13T04:28:21;17.80;99.90
16728;DHT22;8482;54.396;18.590;2023-07-13T04:30:48;17.80;99.90
16728;DHT22;8482;54.396;18.590;2023-07-13T04:33:14;17.90;99.90
16728;DHT22;8482;54.396;18.590;2023-07-13T04:35:45;18.00;99.90
16728;DHT22;8482;54.396;18.590;2023-07-13T04:38:12;18.00;99.90
16728;DHT22;8482;54.396;18.590;2023-07-13T04:40:38;18.10;99.90
16728;DHT22;8482;54.396;18.590;2023-07-13T04:43:04;18.10;99.90
16728;DHT22;8482;54.396;18.590;2023-07-13T04:45:29;18.20;99.90
16728;DHT22;8482;54.396;18.590;2023-07-13T04:47:56;18.30;99.90
16728;DHT22;8482;54.396;18.590;2023-07-13T04:50:22;18.30;99.90
16728;DHT22;8482;54.396;18.590;2023-07-13T04:52:51;18.40;99.90
16728;DHT22;8482;54.396;18.590;2023-07-13T04:55:18;18.40;99.90
16728;DHT22;8482;54.396;18.590;2023-07-13T04:57:45;18.50;99.90
16728;DHT22;8482;54.396;18.590;2023-07-13T05:00:12;18.50;99.90
16728;DHT22;8482;54.396;18.590;2023-07-13T05:02:39;18.60;99.90
16728;DHT22;8482;54.396;18.590;2023-07-13T05:05:06;18.60;99.90
16728;DHT22;8482;54.396;18.590;2023-07-13T05:07:32;18.70;99.90
16728;DHT22;8482;54.396;18.590;2023-07-13T05:09:59;18.80;99.90
16728;DHT22;8482;54.396;18.590;2023-07-13T05:12:26;18.80;99.90
16728;DHT22;8482;54.396;18.590;2023-07-13T05:14:52;18.90;99.90
16728;DHT22;8482;54.396;18.590;2023-07-13T05:17:18;18.90;99.90
16728;DHT22;8482;54.396;18.590;2023-07-13T05:19:44;18.90;99.90
16728;DHT22;8482;54.396;18.590;2023-07-13T05:22:10;19.00;99.90
16728;DHT22;8482;54.396;18.590;2023-07-13T05:24:36;19.10;99.90
16728;DHT22;8482;54.396;18.590;2023-07-13T05:27:02;19.10;99.90
16728;DHT22;8482;54.396;18.590;2023-07-13T05:29:28;19.20;99.90
16728;DHT22;8482;54.396;18.590;2023-07-13T05:31:54;19.20;99.90
16728;DHT22;8482;54.396;18.590;2023-07-13T05:34:20;19.30;99.90
16728;DHT22;8482;54.396;18.590;2023-07-13T05:36:46;19.30;99.90
16728;DHT22;8482;54.396;18.590;2023-07-13T05:39:12;19.30;99.90
16728;DHT22;8482;54.396;18.590;2023-07-13T05:41:37;19.40;99.90
16728;DHT22;8482;54.396;18.590;2023-07-13T05:44:03;19.40;99.90
16728;DHT22;8482;54.396;18.590;2023-07-13T05:46:29;19.50;99.90
16728;DHT22;8482;54.396;18.590;2023-07-13T05:48:56;19.50;99.90
16728;DHT22;8482;54.396;18.590;2023-07-13T05:51:22;19.60;99.90
16728;DHT22;8482;54.396;18.590;2023-07-13T05:53:47;19.60;99.90
16728;DHT22;8482;54.396;18.590;2023-07-13T05:56:13;19.70;99.90
16728;DHT22;8482;54.396;18.590;2023-07-13T05:58:39;19.70;99.90
16728;DHT22;8482;54.396;18.590;2023-07-13T06:01:09;19.70;99.90
16728;DHT22;8482;54.396;18.590;2023-07-13T06:03:37;19.80;99.90
16728;DHT22;8482;54.396;18.590;2023-07-13T06:06:05;19.90;99.90
16728;DHT22;8482;54.396;18.590;2023-07-13T06:08:32;19.90;99.90
16728;DHT22;8482;54.396;18.590;2023-07-13T06:11:17;19.90;99.90
16728;DHT22;8482;54.396;18.590;2023-07-13T06:13:45;20.00;99.90
16728;DHT22;8482;54.396;18.590;2023-07-13T06:16:13;20.00;99.90
16728;DHT22;8482;54.396;18.590;2023-07-13T06:18:40;20.10;99.90
16728;DHT22;8482;54.396;18.590;2023-07-13T06:21:12;20.10;99.90
16728;DHT22;8482;54.396;18.590;2023-07-13T06:23:40;20.20;99.90
16728;DHT22;8482;54.396;18.590;2023-07-13T06:26:07;20.20;99.90
16728;DHT22;8482;54.396;18.590;2023-07-13T06:28:34;20.20;99.90
16728;DHT22;8482;54.396;18.590;2023-07-13T06:31:01;20.30;99.90
16728;DHT22;8482;54.396;18.590;2023-07-13T06:33:27;20.30;99.90
16728;DHT22;8482;54.396;18.590;2023-07-13T06:35:53;20.40;99.90
16728;DHT22;8482;54.396;18.590;2023-07-13T06:38:20;20.40;99.90
16728;DHT22;8482;54.396;18.590;2023-07-13T06:40:46;20.40;99.90
16728;DHT22;8482;54.396;18.590;2023-07-13T06:43:12;20.50;99.90
16728;DHT22;8482;54.396;18.590;2023-07-13T06:45:44;20.50;99.90
16728;DHT22;8482;54.396;18.590;2023-07-13T06:48:13;20.50;99.90
16728;DHT22;8482;54.396;18.590;2023-07-13T06:50:40;20.60;99.90
16728;DHT22;8482;54.396;18.590;2023-07-13T06:53:06;20.60;99.90
16728;DHT22;8482;54.396;18.590;2023-07-13T06:55:32;20.60;99.90
16728;DHT22;8482;54.396;18.590;2023-07-13T06:57:58;20.60;99.90
16728;DHT22;8482;54.396;18.590;2023-07-13T07:00:24;20.70;99.90
16728;DHT22;8482;54.396;18.590;2023-07-13T07:02:50;20.70;99.90
16728;DHT22;8482;54.396;18.590;2023-07-13T07:05:16;20.70;99.90
16728;DHT22;8482;54.396;18.590;2023-07-13T07:07:41;20.70;99.90
16728;DHT22;8482;54.396;18.590;2023-07-13T07:10:08;20.80;99.90
16728;DHT22;8482;54.396;18.590;2023-07-13T07:12:34;20.80;99.90
16728;DHT22;8482;54.396;18.590;2023-07-13T07:15:00;20.90;99.90
16728;DHT22;8482;54.396;18.590;2023-07-13T07:17:26;20.90;99.90
16728;DHT22;8482;54.396;18.590;2023-07-13T07:19:52;21.00;99.90
16728;DHT22;8482;54.396;18.590;2023-07-13T07:22:21;21.00;99.90
16728;DHT22;8482;54.396;18.590;2023-07-13T07:24:47;21.10;99.90
16728;DHT22;8482;54.396;18.590;2023-07-13T07:27:13;21.10;99.90
16728;DHT22;8482;54.396;18.590;2023-07-13T07:29:39;21.20;99.90
16728;DHT22;8482;54.396;18.590;2023-07-13T07:32:05;21.20;99.90
16728;DHT22;8482;54.396;18.590;2023-07-13T07:34:31;21.20;99.90
16728;DHT22;8482;54.396;18.590;2023-07-13T07:37:00;21.20;99.90
16728;DHT22;8482;54.396;18.590;2023-07-13T07:39:26;21.30;99.90
16728;DHT22;8482;54.396;18.590;2023-07-13T07:41:52;21.30;99.90
16728;DHT22;8482;54.396;18.590;2023-07-13T07:44:19;21.30;99.90
16728;DHT22;8482;54.396;18.590;2023-07-13T07:46:45;21.40;99.90
16728;DHT22;8482;54.396;18.590;2023-07-13T07:49:11;21.40;99.90
16728;DHT22;8482;54.396;18.590;2023-07-13T07:51:37;21.40;99.90
16728;DHT22;8482;54.396;18.590;2023-07-13T07:54:04;21.50;99.90
16728;DHT22;8482;54.396;18.590;2023-07-13T07:56:31;21.50;99.90
16728;DHT22;8482;54.396;18.590;2023-07-13T07:58:57;21.50;99.90
16728;DHT22;8482;54.396;18.590;2023-07-13T08:01:23;21.50;99.90
16728;DHT22;8482;54.396;18.590;2023-07-13T08:03:49;21.50;99.90
16728;DHT22;8482;54.396;18.590;2023-07-13T08:06:15;21.60;99.90
16728;DHT22;8482;54.396;18.590;2023-07-13T08:08:41;21.60;99.90
16728;DHT22;8482;54.396;18.590;2023-07-13T08:11:08;21.60;99.90
16728;DHT22;8482;54.396;18.590;2023-07-13T08:13:35;21.70;99.90
16728;DHT22;8482;54.396;18.590;2023-07-13T08:16:01;21.80;99.90
16728;DHT22;8482;54.396;18.590;2023-07-13T08:18:29;21.80;99.90
16728;DHT22;8482;54.396;18.590;2023-07-13T08:20:55;21.80;99.90
16728;DHT22;8482;54.396;18.590;2023-07-13T08:23:25;21.80;99.90
16728;DHT22;8482;54.396;18.590;2023-07-13T08:25:54;21.90;99.90
16728;DHT22;8482;54.396;18.590;2023-07-13T08:28:21;21.90;99.90
16728;DHT22;8482;54.396;18.590;2023-07-13T08:30:48;22.00;99.90
16728;DHT22;8482;54.396;18.590;2023-07-13T08:33:18;22.00;99.90
16728;DHT22;8482;54.396;18.590;2023-07-13T08:35:48;22.00;99.90
16728;DHT22;8482;54.396;18.590;2023-07-13T08:38:16;22.10;99.90
16728;DHT22;8482;54.396;18.590;2023-07-13T08:40:43;22.10;99.90
16728;DHT22;8482;54.396;18.590;2023-07-13T08:43:16;22.20;99.90
16728;DHT22;8482;54.396;18.590;2023-07-13T08:45:50;22.20;99.90
16728;DHT22;8482;54.396;18.590;2023-07-13T08:48:27;22.30;99.90
16728;DHT22;8482;54.396;18.590;2023-07-13T08:50:59;22.30;99.90
16728;DHT22;8482;54.396;18.590;2023-07-13T08:53:36;22.30;99.90
16728;DHT22;8482;54.396;18.590;2023-07-13T08:56:07;22.40;99.90
16728;DHT22;8482;54.396;18.590;2023-07-13T08:58:39;22.40;99.90
16728;DHT22;8482;54.396;18.590;2023-07-13T09:01:30;22.40;99.90
16728;DHT22;8482;54.396;18.590;2023-07-13T09:15:46;22.50;99.90
16728;DHT22;8482;54.396;18.590;2023-07-13T09:21:00;22.60;99.90
16728;DHT22;8482;54.396;18.590;2023-07-13T09:23:31;22.60;99.90
16728;DHT22;8482;54.396;18.590;2023-07-13T09:26:18;22.70;99.90
16728;DHT22;8482;54.396;18.590;2023-07-13T09:28:49;22.70;99.90
16728;DHT22;8482;54.396;18.590;2023-07-13T09:31:24;22.80;99.90
16728;DHT22;8482;54.396;18.590;2023-07-13T09:33:56;22.80;99.90
16728;DHT22;8482;54.396;18.590;2023-07-13T09:36:29;22.90;99.90
16728;DHT22;8482;54.396;18.590;2023-07-13T09:44:31;23.10;99.90
16728;DHT22;8482;54.396;18.590;2023-07-13T09:46:58;23.20;99.90
16728;DHT22;8482;54.396;18.590;2023-07-13T09:49:29;23.20;99.40
16728;DHT22;8482;54.396;18.590;2023-07-13T09:52:14;23.10;99.30
16728;DHT22;8482;54.396;18.590;2023-07-13T09:54:45;23.30;99.00
16728;DHT22;8482;54.396;18.590;2023-07-13T09:57:19;23.30;98.50
16728;DHT22;8482;54.396;18.590;2023-07-13T09:59:50;23.40;99.10
16728;DHT22;8482;54.396;18.590;2023-07-13T10:02:28;23.50;99.30
16728;DHT22;8482;54.396;18.590;2023-07-13T10:07:32;23.60;98.50
16728;DHT22;8482;54.396;18.590;2023-07-13T10:10:03;23.70;98.20
16728;DHT22;8482;54.396;18.590;2023-07-13T10:12:30;23.70;98.00
16728;DHT22;8482;54.396;18.590;2023-07-13T10:15:02;23.80;97.90
16728;DHT22;8482;54.396;18.590;2023-07-13T10:17:31;23.80;97.90
16728;DHT22;8482;54.396;18.590;2023-07-13T10:20:02;23.80;98.80
16728;DHT22;8482;54.396;18.590;2023-07-13T10:22:54;23.80;99.90
16728;DHT22;8482;54.396;18.590;2023-07-13T10:25:34;23.80;99.90
16728;DHT22;8482;54.396;18.590;2023-07-13T10:28:30;23.70;99.90
16728;DHT22;8482;54.396;18.590;2023-07-13T10:31:01;23.60;99.90
16728;DHT22;8482;54.396;18.590;2023-07-13T10:33:30;23.60;99.90
16728;DHT22;8482;54.396;18.590;2023-07-13T10:36:17;23.50;99.90
16728;DHT22;8482;54.396;18.590;2023-07-13T10:38:44;23.40;99.90
16728;DHT22;8482;54.396;18.590;2023-07-13T10:41:20;23.30;99.90
16728;DHT22;8482;54.396;18.590;2023-07-13T10:43:54;23.20;99.90
16728;DHT22;8482;54.396;18.590;2023-07-13T10:46:24;23.10;99.90
16728;DHT22;8482;54.396;18.590;2023-07-13T10:49:00;22.90;99.90
16728;DHT22;8482;54.396;18.590;2023-07-13T10:51:30;22.70;99.90
16728;DHT22;8482;54.396;18.590;2023-07-13T10:54:27;22.60;99.90
16728;DHT22;8482;54.396;18.590;2023-07-13T10:59:38;22.40;99.90
16728;DHT22;8482;54.396;18.590;2023-07-13T11:02:10;22.40;99.90
16728;DHT22;8482;54.396;18.590;2023-07-13T11:04:47;22.30;99.90
16728;DHT22;8482;54.396;18.590;2023-07-13T11:07:29;22.30;99.90
16728;DHT22;8482;54.396;18.590;2023-07-13T11:09:59;22.20;99.90
16728;DHT22;8482;54.396;18.590;2023-07-13T11:15:13;22.40;99.90
16728;DHT22;8482;54.396;18.590;2023-07-13T11:17:49;22.50;99.90
16728;DHT22;8482;54.396;18.590;2023-07-13T11:20:33;22.60;99.90
16728;DHT22;8482;54.396;18.590;2023-07-13T11:25:41;22.70;99.90
16728;DHT22;8482;54.396;18.590;2023-07-13T11:36:19;22.80;99.90
16728;DHT22;8482;54.396;18.590;2023-07-13T11:41:49;22.70;99.90
16728;DHT22;8482;54.396;18.590;2023-07-13T11:44:22;22.80;99.90
16728;DHT22;8482;54.396;18.590;2023-07-13T11:46:57;22.80;99.90
16728;DHT22;8482;54.396;18.590;2023-07-13T11:49:28;23.00;99.90
16728;DHT22;8482;54.396;18.590;2023-07-13T11:51:56;23.00;99.90
16728;DHT22;8482;54.396;18.590;2023-07-13T11:54:29;23.10;99.90
16728;DHT22;8482;54.396;18.590;2023-07-13T11:59:43;23.10;99.90
16728;DHT22;8482;54.396;18.590;2023-07-13T12:02:16;23.00;99.90
16728;DHT22;8482;54.396;18.590;2023-07-13T12:04:51;23.00;99.90
16728;DHT22;8482;54.396;18.590;2023-07-13T12:07:19;23.00;99.90
16728;DHT22;8482;54.396;18.590;2023-07-13T12:09:45;23.00;99.90
16728;DHT22;8482;54.396;18.590;2023-07-13T12:12:18;23.00;99.90
16728;DHT22;8482;54.396;18.590;2023-07-13T12:14:45;23.10;99.90
16728;DHT22;8482;54.396;18.590;2023-07-13T12:17:21;23.10;99.90
16728;DHT22;8482;54.396;18.590;2023-07-13T12:19:50;23.20;99.90
16728;DHT22;8482;54.396;18.590;2023-07-13T12:22:19;23.20;99.90
16728;DHT22;8482;54.396;18.590;2023-07-13T12:24:47;23.30;99.90
16728;DHT22;8482;54.396;18.590;2023-07-13T12:27:25;23.40;99.90
16728;DHT22;8482;54.396;18.590;2023-07-13T12:29:59;23.50;99.90
16728;DHT22;8482;54.396;18.590;2023-07-13T12:32:28;23.60;99.90
16728;DHT22;8482;54.396;18.590;2023-07-13T12:35:16;23.70;99.90
16728;DHT22;8482;54.396;18.590;2023-07-13T12:37:45;23.70;99.90
16728;DHT22;8482;54.396;18.590;2023-07-13T12:40:19;23.60;99.90
16728;DHT22;8482;54.396;18.590;2023-07-13T12:42:49;23.50;99.90
16728;DHT22;8482;54.396;18.590;2023-07-13T12:45:26;23.40;99.90
16728;DHT22;8482;54.396;18.590;2023-07-13T12:48:13;23.40;99.90
16728;DHT22;8482;54.396;18.590;2023-07-13T12:50:45;23.30;99.90
16728;DHT22;8482;54.396;18.590;2023-07-13T12:53:15;23.20;99.90
16728;DHT22;8482;54.396;18.590;2023-07-13T12:55:50;23.20;99.90
16728;DHT22;8482;54.396;18.590;2023-07-13T13:01:04;23.30;99.90
16728;DHT22;8482;54.396;18.590;2023-07-13T13:03:44;23.40;99.90
16728;DHT22;8482;54.396;18.590;2023-07-13T13:06:20;23.40;99.90
16728;DHT22;8482;54.396;18.590;2023-07-13T13:08:56;23.50;99.90
16728;DHT22;8482;54.396;18.590;2023-07-13T13:11:25;23.60;99.90
16728;DHT22;8482;54.396;18.590;2023-07-13T13:13:52;23.70;99.90
16728;DHT22;8482;54.396;18.590;2023-07-13T13:16:21;23.80;99.90
16728;DHT22;8482;54.396;18.590;2023-07-13T13:18:51;23.80;99.90
16728;DHT22;8482;54.396;18.590;2023-07-13T13:21:19;23.90;99.90
16728;DHT22;8482;54.396;18.590;2023-07-13T13:23:46;24.00;99.90
16728;DHT22;8482;54.396;18.590;2023-07-13T13:26:16;24.00;99.90
16728;DHT22;8482;54.396;18.590;2023-07-13T13:28:43;24.10;99.90
16728;DHT22;8482;54.396;18.590;2023-07-13T13:31:10;24.10;99.90
16728;DHT22;8482;54.396;18.590;2023-07-13T13:33:42;24.20;99.90
16728;DHT22;8482;54.396;18.590;2023-07-13T13:36:18;24.20;99.90
16728;DHT22;8482;54.396;18.590;2023-07-13T13:38:46;24.30;99.90
16728;DHT22;8482;54.396;18.590;2023-07-13T13:41:14;24.40;99.90
16728;DHT22;8482;54.396;18.590;2023-07-13T13:43:42;24.40;99.90
16728;DHT22;8482;54.396;18.590;2023-07-13T13:46:17;24.50;99.90
16728;DHT22;8482;54.396;18.590;2023-07-13T13:48:46;24.60;99.90
16728;DHT22;8482;54.396;18.590;2023-07-13T13:51:22;24.50;99.30
16728;DHT22;8482;54.396;18.590;2023-07-13T13:53:50;24.50;99.10
16728;DHT22;8482;54.396;18.590;2023-07-13T13:56:18;24.40;99.50
16728;DHT22;8482;54.396;18.590;2023-07-13T13:58:45;24.30;99.90
16728;DHT22;8482;54.396;18.590;2023-07-13T14:01:20;24.30;99.90
16728;DHT22;8482;54.396;18.590;2023-07-13T14:03:50;24.30;99.90
16728;DHT22;8482;54.396;18.590;2023-07-13T14:06:19;24.30;99.90
16728;DHT22;8482;54.396;18.590;2023-07-13T14:08:45;24.40;99.90
16728;DHT22;8482;54.396;18.590;2023-07-13T14:11:18;24.40;99.80
16728;DHT22;8482;54.396;18.590;2023-07-13T14:13:48;24.50;99.20
16728;DHT22;8482;54.396;18.590;2023-07-13T14:16:22;24.50;99.00
16728;DHT22;8482;54.396;18.590;2023-07-13T14:18:58;24.50;98.60
16728;DHT22;8482;54.396;18.590;2023-07-13T14:21:27;24.50;97.70
16728;DHT22;8482;54.396;18.590;2023-07-13T14:23:54;24.50;97.70
16728;DHT22;8482;54.396;18.590;2023-07-13T14:26:24;24.60;97.40
16728;DHT22;8482;54.396;18.590;2023-07-13T14:28:55;24.70;96.90
16728;DHT22;8482;54.396;18.590;2023-07-13T14:31:24;24.70;96.90
16728;DHT22;8482;54.396;18.590;2023-07-13T14:33:51;24.80;96.30
16728;DHT22;8482;54.396;18.590;2023-07-13T14:39:05;24.70;95.60
16728;DHT22;8482;54.396;18.590;2023-07-13T14:41:37;24.70;95.30
16728;DHT22;8482;54.396;18.590;2023-07-13T14:44:17;24.70;95.10
16728;DHT22;8482;54.396;18.590;2023-07-13T14:46:46;24.70;95.00
16728;DHT22;8482;54.396;18.590;2023-07-13T14:49:28;24.70;94.70
16728;DHT22;8482;54.396;18.590;2023-07-13T14:51:56;24.70;94.80
16728;DHT22;8482;54.396;18.590;2023-07-13T14:54:24;24.70;95.30
16728;DHT22;8482;54.396;18.590;2023-07-13T14:56:51;24.80;96.40
16728;DHT22;8482;54.396;18.590;2023-07-13T14:59:17;24.90;96.30
16728;DHT22;8482;54.396;18.590;2023-07-13T15:01:45;24.90;96.70
16728;DHT22;8482;54.396;18.590;2023-07-13T15:04:14;25.00;97.20
16728;DHT22;8482;54.396;18.590;2023-07-13T15:06:59;25.00;97.30
16728;DHT22;8482;54.396;18.590;2023-07-13T15:09:28;25.10;96.90
16728;DHT22;8482;54.396;18.590;2023-07-13T15:11:57;25.20;97.00
16728;DHT22;8482;54.396;18.590;2023-07-13T15:14:25;25.20;97.00
16728;DHT22;8482;54.396;18.590;2023-07-13T15:16:54;25.30;96.70
16728;DHT22;8482;54.396;18.590;2023-07-13T15:19:21;25.30;95.90
16728;DHT22;8482;54.396;18.590;2023-07-13T15:21:49;25.20;95.40
16728;DHT22;8482;54.396;18.590;2023-07-13T15:24:15;25.20;95.20
16728;DHT22;8482;54.396;18.590;2023-07-13T15:26:42;25.00;95.40
16728;DHT22;8482;54.396;18.590;2023-07-13T15:29:15;24.90;96.10
16728;DHT22;8482;54.396;18.590;2023-07-13T15:31:42;24.60;96.50
16728;DHT22;8482;54.396;18.590;2023-07-13T15:34:13;24.50;96.80
16728;DHT22;8482;54.396;18.590;2023-07-13T15:36:42;24.30;97.20
16728;DHT22;8482;54.396;18.590;2023-07-13T15:39:14;24.30;97.30
16728;DHT22;8482;54.396;18.590;2023-07-13T15:41:45;24.40;97.40
16728;DHT22;8482;54.396;18.590;2023-07-13T15:44:25;24.60;97.20
16728;DHT22;8482;54.396;18.590;2023-07-13T15:46:54;24.70;96.60
16728;DHT22;8482;54.396;18.590;2023-07-13T15:49:20;24.70;96.40
16728;DHT22;8482;54.396;18.590;2023-07-13T15:51:47;24.80;96.30
16728;DHT22;8482;54.396;18.590;2023-07-13T15:54:16;24.90;96.20
16728;DHT22;8482;54.396;18.590;2023-07-13T15:56:48;24.80;95.60
16728;DHT22;8482;54.396;18.590;2023-07-13T15:59:18;24.90;95.40
16728;DHT22;8482;54.396;18.590;2023-07-13T16:01:44;24.80;95.20
16728;DHT22;8482;54.396;18.590;2023-07-13T16:04:12;24.80;95.10
16728;DHT22;8482;54.396;18.590;2023-07-13T16:06:40;24.90;95.00
16728;DHT22;8482;54.396;18.590;2023-07-13T16:09:13;24.90;94.90
16728;DHT22;8482;54.396;18.590;2023-07-13T16:11:45;24.90;94.70
16728;DHT22;8482;54.396;18.590;2023-07-13T16:14:13;24.90;94.80
16728;DHT22;8482;54.396;18.590;2023-07-13T16:16:40;24.90;94.70
16728;DHT22;8482;54.396;18.590;2023-07-13T16:19:06;24.90;94.20
16728;DHT22;8482;54.396;18.590;2023-07-13T16:21:46;25.00;94.00
16728;DHT22;8482;54.396;18.590;2023-07-13T16:24:21;25.10;94.00
16728;DHT22;8482;54.396;18.590;2023-07-13T16:26:50;25.20;93.90
16728;DHT22;8482;54.396;18.590;2023-07-13T16:29:26;25.20;93.10
16728;DHT22;8482;54.396;18.590;2023-07-13T16:34:31;25.20;92.60